Pagrindinis puslapis
METAR-TAF:

METAR-TAF

Oro uostai :

Pafosas, Kipras

platuma: 34-43N, ilguma: 032-29E, Aukštis: 11 m

Dabartinis oras

Ataskaita buvo paskelbta 24 minutes, ne 06:30 UTC
Vėjas 2 kt nuo kintamojo kryptimis
Temperatūra 17°C
Drėgmė 77%
Slėgis 1010 hPa
Matomumas 10 km arba daugiau
Mažai debesys ne aukštis 2000 ft
Mažai debesys ne aukštis 3000 ft, Liūtiniai kamuoliniai debesys.

METAR: LCPH 100630Z VRB02KT 9999 FEW020 FEW030CB 17/13 Q1010

Laikas: 09:54 (06:54 UTC)

Prognozė

Ataskaita buvo paskelbta 1 valandą ir 24 minutes, ne 05:30 UTC
Prognozė galioja nuo 10 metu 06 UTC su 11 metu 06 UTC
Vėjas 14 kt iš Vakarų
Matomumas 10 km arba daugiau
Išsisklaidę debesys ne aukštis 2000 ft
Tapsmas
nuo 10 metu 19 UTC su 10 metu 22 UTC
Vėjas 9 kt iš Šiaurės

TAF: LCPH 100530Z 1006/1106 28014KT 9999 SCT020 BECMG 1019/1022 35009KT

Orai ataskaitas ir orų prognozės (METAR, TAF).

turimą stotys yra geltonos ir raudonos taškus žemėlapyje.

Perkelti pele per norėdami pamatyti stoties vardą.

Tada spustelėkite, norėdami matyti oro stebėjimo ir prognozės.

Norėdami pakeisti žemėlapį: spustelėkite ant žalios mygtukų su juodo kryžiaus žemyn,; žalią mygtuką su brūkšneliu, jei norite nutolinti; arba žalių rodyklių gretimoms žemėlapius.


METAR-TAF: